sensor_id;sensor_type;location;lat;lon;timestamp;temperature;humidity
81383;DHT22;70834;37.534;-122.308;2023-07-31T00:01:12;29.10;39.80
81383;DHT22;70834;37.534;-122.308;2023-07-31T00:03:34;29.00;40.00
81383;DHT22;70834;37.534;-122.308;2023-07-31T00:05:55;29.00;40.20
81383;DHT22;70834;37.534;-122.308;2023-07-31T00:08:17;28.90;40.40
81383;DHT22;70834;37.534;-122.308;2023-07-31T00:10:38;28.90;40.40
81383;DHT22;70834;37.534;-122.308;2023-07-31T00:13:00;28.80;40.20
81383;DHT22;70834;37.534;-122.308;2023-07-31T00:15:21;28.70;40.30
81383;DHT22;70834;37.534;-122.308;2023-07-31T00:17:42;28.70;40.40
81383;DHT22;70834;37.534;-122.308;2023-07-31T00:20:04;28.60;40.30
81383;DHT22;70834;37.534;-122.308;2023-07-31T00:22:26;28.50;40.60
81383;DHT22;70834;37.534;-122.308;2023-07-31T00:24:47;28.50;40.40
81383;DHT22;70834;37.534;-122.308;2023-07-31T00:27:09;28.50;40.40
81383;DHT22;70834;37.534;-122.308;2023-07-31T00:29:30;28.40;40.70
81383;DHT22;70834;37.534;-122.308;2023-07-31T00:31:52;28.30;40.70
81383;DHT22;70834;37.534;-122.308;2023-07-31T00:34:13;28.30;40.40
81383;DHT22;70834;37.534;-122.308;2023-07-31T00:36:34;28.20;40.30
81383;DHT22;70834;37.534;-122.308;2023-07-31T00:38:56;28.10;40.30
81383;DHT22;70834;37.534;-122.308;2023-07-31T00:41:17;28.10;40.40
81383;DHT22;70834;37.534;-122.308;2023-07-31T00:43:39;28.00;40.30
81383;DHT22;70834;37.534;-122.308;2023-07-31T00:46:00;28.00;40.20
81383;DHT22;70834;37.534;-122.308;2023-07-31T00:48:22;27.90;40.40
81383;DHT22;70834;37.534;-122.308;2023-07-31T00:50:44;27.80;40.30
81383;DHT22;70834;37.534;-122.308;2023-07-31T00:53:06;27.60;40.40
81383;DHT22;70834;37.534;-122.308;2023-07-31T00:55:27;27.60;40.60
81383;DHT22;70834;37.534;-122.308;2023-07-31T00:57:49;27.50;40.70
81383;DHT22;70834;37.534;-122.308;2023-07-31T01:00:13;27.40;40.70
81383;DHT22;70834;37.534;-122.308;2023-07-31T01:02:35;27.30;40.90
81383;DHT22;70834;37.534;-122.308;2023-07-31T01:04:57;27.20;41.00
81383;DHT22;70834;37.534;-122.308;2023-07-31T01:07:27;27.00;41.10
81383;DHT22;70834;37.534;-122.308;2023-07-31T01:09:59;26.90;41.10
81383;DHT22;70834;37.534;-122.308;2023-07-31T01:12:22;26.80;41.50
81383;DHT22;70834;37.534;-122.308;2023-07-31T01:15:05;26.70;41.40
81383;DHT22;70834;37.534;-122.308;2023-07-31T01:17:27;26.60;41.60
81383;DHT22;70834;37.534;-122.308;2023-07-31T01:19:49;26.50;41.70
81383;DHT22;70834;37.534;-122.308;2023-07-31T01:27:59;26.20;41.80
81383;DHT22;70834;37.534;-122.308;2023-07-31T01:30:26;26.00;42.60
81383;DHT22;70834;37.534;-122.308;2023-07-31T01:32:50;25.90;42.90
81383;DHT22;70834;37.534;-122.308;2023-07-31T01:35:12;25.80;43.90
81383;DHT22;70834;37.534;-122.308;2023-07-31T01:37:33;25.70;43.70
81383;DHT22;70834;37.534;-122.308;2023-07-31T01:39:55;25.60;43.70
81383;DHT22;70834;37.534;-122.308;2023-07-31T01:42:16;25.50;44.00
81383;DHT22;70834;37.534;-122.308;2023-07-31T01:44:38;25.30;44.20
81383;DHT22;70834;37.534;-122.308;2023-07-31T01:46:59;25.20;44.40
81383;DHT22;70834;37.534;-122.308;2023-07-31T01:49:21;25.00;44.60
81383;DHT22;70834;37.534;-122.308;2023-07-31T01:51:42;25.00;45.10
81383;DHT22;70834;37.534;-122.308;2023-07-31T01:54:04;24.80;45.40
81383;DHT22;70834;37.534;-122.308;2023-07-31T01:56:26;24.70;45.80
81383;DHT22;70834;37.534;-122.308;2023-07-31T01:58:47;24.50;46.00
81383;DHT22;70834;37.534;-122.308;2023-07-31T02:01:09;24.40;46.50
81383;DHT22;70834;37.534;-122.308;2023-07-31T02:03:30;24.30;47.00
81383;DHT22;70834;37.534;-122.308;2023-07-31T02:05:53;24.10;47.30
81383;DHT22;70834;37.534;-122.308;2023-07-31T02:08:16;24.00;47.60
81383;DHT22;70834;37.534;-122.308;2023-07-31T02:10:37;23.80;47.70
81383;DHT22;70834;37.534;-122.308;2023-07-31T02:12:59;23.70;47.90
81383;DHT22;70834;37.534;-122.308;2023-07-31T02:15:20;23.60;48.20
81383;DHT22;70834;37.534;-122.308;2023-07-31T02:17:42;23.50;48.60
81383;DHT22;70834;37.534;-122.308;2023-07-31T02:20:04;23.30;49.50
81383;DHT22;70834;37.534;-122.308;2023-07-31T02:22:25;23.20;49.30
81383;DHT22;70834;37.534;-122.308;2023-07-31T02:24:47;23.10;49.70
81383;DHT22;70834;37.534;-122.308;2023-07-31T02:27:08;23.00;50.20
81383;DHT22;70834;37.534;-122.308;2023-07-31T02:29:29;22.90;50.50
81383;DHT22;70834;37.534;-122.308;2023-07-31T02:31:51;22.80;50.60
81383;DHT22;70834;37.534;-122.308;2023-07-31T02:34:12;22.70;51.10
81383;DHT22;70834;37.534;-122.308;2023-07-31T02:36:34;22.60;51.60
81383;DHT22;70834;37.534;-122.308;2023-07-31T02:38:55;22.40;51.80
81383;DHT22;70834;37.534;-122.308;2023-07-31T02:41:17;22.40;52.20
81383;DHT22;70834;37.534;-122.308;2023-07-31T02:43:38;22.20;52.60
81383;DHT22;70834;37.534;-122.308;2023-07-31T02:46:00;22.10;53.10
81383;DHT22;70834;37.534;-122.308;2023-07-31T02:48:21;21.90;53.20
81383;DHT22;70834;37.534;-122.308;2023-07-31T02:50:43;21.80;53.60
81383;DHT22;70834;37.534;-122.308;2023-07-31T02:53:04;21.70;54.70
81383;DHT22;70834;37.534;-122.308;2023-07-31T02:55:26;21.60;54.80
81383;DHT22;70834;37.534;-122.308;2023-07-31T02:57:47;21.40;55.00
81383;DHT22;70834;37.534;-122.308;2023-07-31T03:00:09;21.30;55.20
81383;DHT22;70834;37.534;-122.308;2023-07-31T03:02:30;21.20;55.90
81383;DHT22;70834;37.534;-122.308;2023-07-31T03:04:52;21.10;56.20
81383;DHT22;70834;37.534;-122.308;2023-07-31T03:07:13;20.90;56.70
81383;DHT22;70834;37.534;-122.308;2023-07-31T03:09:34;20.90;56.90
81383;DHT22;70834;37.534;-122.308;2023-07-31T03:11:56;20.80;57.40
81383;DHT22;70834;37.534;-122.308;2023-07-31T03:14:17;20.60;57.80
81383;DHT22;70834;37.534;-122.308;2023-07-31T03:16:39;20.50;58.20
81383;DHT22;70834;37.534;-122.308;2023-07-31T03:19:00;20.40;58.60
81383;DHT22;70834;37.534;-122.308;2023-07-31T03:21:22;20.30;58.90
81383;DHT22;70834;37.534;-122.308;2023-07-31T03:23:43;20.20;59.20
81383;DHT22;70834;37.534;-122.308;2023-07-31T03:26:06;20.10;59.60
81383;DHT22;70834;37.534;-122.308;2023-07-31T03:28:28;20.00;60.00
81383;DHT22;70834;37.534;-122.308;2023-07-31T03:30:50;19.90;60.40
81383;DHT22;70834;37.534;-122.308;2023-07-31T03:33:12;19.80;60.60
81383;DHT22;70834;37.534;-122.308;2023-07-31T03:35:33;19.70;60.90
81383;DHT22;70834;37.534;-122.308;2023-07-31T03:37:55;19.60;61.20
81383;DHT22;70834;37.534;-122.308;2023-07-31T03:40:16;19.50;61.20
81383;DHT22;70834;37.534;-122.308;2023-07-31T03:42:38;19.50;61.70
81383;DHT22;70834;37.534;-122.308;2023-07-31T03:44:59;19.40;62.00
81383;DHT22;70834;37.534;-122.308;2023-07-31T03:47:21;19.30;62.40
81383;DHT22;70834;37.534;-122.308;2023-07-31T03:49:42;19.30;62.60
81383;DHT22;70834;37.534;-122.308;2023-07-31T03:52:04;19.20;63.00
81383;DHT22;70834;37.534;-122.308;2023-07-31T03:54:25;19.10;63.40
81383;DHT22;70834;37.534;-122.308;2023-07-31T03:56:47;19.00;63.50
81383;DHT22;70834;37.534;-122.308;2023-07-31T03:59:08;19.00;63.80
81383;DHT22;70834;37.534;-122.308;2023-07-31T04:01:29;18.90;63.90
81383;DHT22;70834;37.534;-122.308;2023-07-31T04:03:51;18.90;64.10
81383;DHT22;70834;37.534;-122.308;2023-07-31T04:06:12;18.90;64.10
81383;DHT22;70834;37.534;-122.308;2023-07-31T04:08:34;18.70;64.40
81383;DHT22;70834;37.534;-122.308;2023-07-31T04:10:55;18.80;64.60
81383;DHT22;70834;37.534;-122.308;2023-07-31T04:13:16;18.70;65.00
81383;DHT22;70834;37.534;-122.308;2023-07-31T04:15:38;18.60;65.20
81383;DHT22;70834;37.534;-122.308;2023-07-31T04:17:59;18.50;65.50
81383;DHT22;70834;37.534;-122.308;2023-07-31T04:20:21;18.50;65.70
81383;DHT22;70834;37.534;-122.308;2023-07-31T04:22:42;18.40;66.00
81383;DHT22;70834;37.534;-122.308;2023-07-31T04:25:04;18.40;66.40
81383;DHT22;70834;37.534;-122.308;2023-07-31T04:27:25;18.40;66.30
81383;DHT22;70834;37.534;-122.308;2023-07-31T04:29:47;18.40;66.60
81383;DHT22;70834;37.534;-122.308;2023-07-31T04:32:09;18.30;66.70
81383;DHT22;70834;37.534;-122.308;2023-07-31T04:34:30;18.30;67.20
81383;DHT22;70834;37.534;-122.308;2023-07-31T04:36:51;18.20;67.40
81383;DHT22;70834;37.534;-122.308;2023-07-31T04:39:13;18.20;67.50
81383;DHT22;70834;37.534;-122.308;2023-07-31T04:41:34;18.20;67.60
81383;DHT22;70834;37.534;-122.308;2023-07-31T04:43:56;18.10;67.90
81383;DHT22;70834;37.534;-122.308;2023-07-31T04:46:17;18.00;68.10
81383;DHT22;70834;37.534;-122.308;2023-07-31T04:48:39;18.00;68.20
81383;DHT22;70834;37.534;-122.308;2023-07-31T04:51:00;18.00;68.30
81383;DHT22;70834;37.534;-122.308;2023-07-31T04:53:21;17.90;68.40
81383;DHT22;70834;37.534;-122.308;2023-07-31T04:55:43;17.90;68.60
81383;DHT22;70834;37.534;-122.308;2023-07-31T04:58:04;17.90;68.80
81383;DHT22;70834;37.534;-122.308;2023-07-31T05:00:26;17.90;68.90
81383;DHT22;70834;37.534;-122.308;2023-07-31T05:02:47;17.90;69.00
81383;DHT22;70834;37.534;-122.308;2023-07-31T05:05:08;17.80;69.00
81383;DHT22;70834;37.534;-122.308;2023-07-31T05:07:30;17.80;69.20
81383;DHT22;70834;37.534;-122.308;2023-07-31T05:09:51;17.80;69.00
81383;DHT22;70834;37.534;-122.308;2023-07-31T05:12:13;17.70;69.40
81383;DHT22;70834;37.534;-122.308;2023-07-31T05:14:34;17.70;69.50
81383;DHT22;70834;37.534;-122.308;2023-07-31T05:16:55;17.70;69.50
81383;DHT22;70834;37.534;-122.308;2023-07-31T05:19:17;17.70;69.50
81383;DHT22;70834;37.534;-122.308;2023-07-31T05:21:38;17.60;69.90
81383;DHT22;70834;37.534;-122.308;2023-07-31T05:24:00;17.60;70.00
81383;DHT22;70834;37.534;-122.308;2023-07-31T05:26:21;17.60;70.00
81383;DHT22;70834;37.534;-122.308;2023-07-31T05:28:43;17.50;70.40
81383;DHT22;70834;37.534;-122.308;2023-07-31T05:31:05;17.50;70.60
81383;DHT22;70834;37.534;-122.308;2023-07-31T05:33:27;17.50;70.80
81383;DHT22;70834;37.534;-122.308;2023-07-31T05:35:48;17.40;70.90
81383;DHT22;70834;37.534;-122.308;2023-07-31T05:38:10;17.40;70.90
81383;DHT22;70834;37.534;-122.308;2023-07-31T05:40:33;17.40;71.10
81383;DHT22;70834;37.534;-122.308;2023-07-31T05:42:54;17.30;71.00
81383;DHT22;70834;37.534;-122.308;2023-07-31T05:45:16;17.30;71.30
81383;DHT22;70834;37.534;-122.308;2023-07-31T05:47:37;17.30;71.70
81383;DHT22;70834;37.534;-122.308;2023-07-31T05:49:58;17.30;71.80
81383;DHT22;70834;37.534;-122.308;2023-07-31T05:52:20;17.20;71.70
81383;DHT22;70834;37.534;-122.308;2023-07-31T05:54:42;17.20;71.90
81383;DHT22;70834;37.534;-122.308;2023-07-31T05:57:04;17.20;72.20
81383;DHT22;70834;37.534;-122.308;2023-07-31T05:59:25;17.10;72.30
81383;DHT22;70834;37.534;-122.308;2023-07-31T06:01:47;17.10;72.20
81383;DHT22;70834;37.534;-122.308;2023-07-31T06:04:08;17.10;72.20
81383;DHT22;70834;37.534;-122.308;2023-07-31T06:06:30;17.10;72.20
81383;DHT22;70834;37.534;-122.308;2023-07-31T06:08:51;17.00;72.20
81383;DHT22;70834;37.534;-122.308;2023-07-31T06:11:13;17.00;72.00
81383;DHT22;70834;37.534;-122.308;2023-07-31T06:13:34;17.00;71.90
81383;DHT22;70834;37.534;-122.308;2023-07-31T06:15:56;16.90;72.00
81383;DHT22;70834;37.534;-122.308;2023-07-31T06:18:17;16.90;71.80
81383;DHT22;70834;37.534;-122.308;2023-07-31T06:20:39;16.90;72.10
81383;DHT22;70834;37.534;-122.308;2023-07-31T06:23:01;16.80;72.10
81383;DHT22;70834;37.534;-122.308;2023-07-31T06:25:23;16.80;72.10
81383;DHT22;70834;37.534;-122.308;2023-07-31T06:27:44;16.80;71.90
81383;DHT22;70834;37.534;-122.308;2023-07-31T06:30:06;16.70;72.20
81383;DHT22;70834;37.534;-122.308;2023-07-31T06:32:28;16.70;72.60
81383;DHT22;70834;37.534;-122.308;2023-07-31T06:34:49;16.70;72.50
81383;DHT22;70834;37.534;-122.308;2023-07-31T06:37:11;16.70;72.70
81383;DHT22;70834;37.534;-122.308;2023-07-31T06:39:32;16.70;73.00
81383;DHT22;70834;37.534;-122.308;2023-07-31T06:41:54;16.70;73.00
81383;DHT22;70834;37.534;-122.308;2023-07-31T06:44:15;16.60;73.00
81383;DHT22;70834;37.534;-122.308;2023-07-31T06:46:37;16.60;72.90
81383;DHT22;70834;37.534;-122.308;2023-07-31T06:48:58;16.60;73.00
81383;DHT22;70834;37.534;-122.308;2023-07-31T06:51:20;16.60;73.00
81383;DHT22;70834;37.534;-122.308;2023-07-31T06:53:41;16.50;73.30
81383;DHT22;70834;37.534;-122.308;2023-07-31T06:56:06;16.50;73.30
81383;DHT22;70834;37.534;-122.308;2023-07-31T06:58:27;16.50;73.70
81383;DHT22;70834;37.534;-122.308;2023-07-31T07:00:49;16.50;73.50
81383;DHT22;70834;37.534;-122.308;2023-07-31T07:03:11;16.50;73.50
81383;DHT22;70834;37.534;-122.308;2023-07-31T07:05:35;16.50;73.80
81383;DHT22;70834;37.534;-122.308;2023-07-31T07:07:57;16.50;74.00
81383;DHT22;70834;37.534;-122.308;2023-07-31T07:10:18;16.50;74.10
81383;DHT22;70834;37.534;-122.308;2023-07-31T07:12:40;16.40;74.00
81383;DHT22;70834;37.534;-122.308;2023-07-31T07:15:02;16.40;74.10
81383;DHT22;70834;37.534;-122.308;2023-07-31T07:17:24;16.40;74.40
81383;DHT22;70834;37.534;-122.308;2023-07-31T07:19:47;16.40;74.60
81383;DHT22;70834;37.534;-122.308;2023-07-31T07:22:09;16.40;74.70
81383;DHT22;70834;37.534;-122.308;2023-07-31T07:24:31;16.50;74.90
81383;DHT22;70834;37.534;-122.308;2023-07-31T07:26:52;16.40;74.40
81383;DHT22;70834;37.534;-122.308;2023-07-31T07:29:14;16.40;74.00
81383;DHT22;70834;37.534;-122.308;2023-07-31T07:31:35;16.40;74.10
81383;DHT22;70834;37.534;-122.308;2023-07-31T07:33:57;16.40;74.10
81383;DHT22;70834;37.534;-122.308;2023-07-31T07:36:18;16.40;74.50
81383;DHT22;70834;37.534;-122.308;2023-07-31T07:38:40;16.40;74.50
81383;DHT22;70834;37.534;-122.308;2023-07-31T07:41:02;16.30;74.50
81383;DHT22;70834;37.534;-122.308;2023-07-31T07:43:23;16.30;74.80
81383;DHT22;70834;37.534;-122.308;2023-07-31T07:45:45;16.30;75.10
81383;DHT22;70834;37.534;-122.308;2023-07-31T07:48:06;16.30;75.20
81383;DHT22;70834;37.534;-122.308;2023-07-31T07:50:28;16.30;75.40
81383;DHT22;70834;37.534;-122.308;2023-07-31T07:52:49;16.30;75.50
81383;DHT22;70834;37.534;-122.308;2023-07-31T07:55:10;16.30;75.60
81383;DHT22;70834;37.534;-122.308;2023-07-31T07:57:32;16.30;75.70
81383;DHT22;70834;37.534;-122.308;2023-07-31T07:59:53;16.30;75.90
81383;DHT22;70834;37.534;-122.308;2023-07-31T08:02:15;16.30;76.00
81383;DHT22;70834;37.534;-122.308;2023-07-31T08:04:36;16.30;76.00
81383;DHT22;70834;37.534;-122.308;2023-07-31T08:06:58;16.30;76.20
81383;DHT22;70834;37.534;-122.308;2023-07-31T08:09:19;16.30;76.20
81383;DHT22;70834;37.534;-122.308;2023-07-31T08:11:41;16.30;76.20
81383;DHT22;70834;37.534;-122.308;2023-07-31T08:14:02;16.30;76.30
81383;DHT22;70834;37.534;-122.308;2023-07-31T08:16:23;16.30;76.40
81383;DHT22;70834;37.534;-122.308;2023-07-31T08:18:45;16.30;76.50
81383;DHT22;70834;37.534;-122.308;2023-07-31T08:21:06;16.30;76.70
81383;DHT22;70834;37.534;-122.308;2023-07-31T08:23:28;16.30;76.60
81383;DHT22;70834;37.534;-122.308;2023-07-31T08:25:49;16.30;76.60
81383;DHT22;70834;37.534;-122.308;2023-07-31T08:28:11;16.30;76.40
81383;DHT22;70834;37.534;-122.308;2023-07-31T08:30:33;16.40;76.60
81383;DHT22;70834;37.534;-122.308;2023-07-31T08:32:54;16.40;76.60
81383;DHT22;70834;37.534;-122.308;2023-07-31T08:35:16;16.40;76.70
81383;DHT22;70834;37.534;-122.308;2023-07-31T08:37:38;16.30;76.70
81383;DHT22;70834;37.534;-122.308;2023-07-31T08:39:59;16.30;76.70
81383;DHT22;70834;37.534;-122.308;2023-07-31T08:42:21;16.30;76.70
81383;DHT22;70834;37.534;-122.308;2023-07-31T08:44:43;16.30;76.70
81383;DHT22;70834;37.534;-122.308;2023-07-31T08:47:06;16.30;76.90
81383;DHT22;70834;37.534;-122.308;2023-07-31T08:49:27;16.30;76.90
81383;DHT22;70834;37.534;-122.308;2023-07-31T08:51:50;16.30;76.80
81383;DHT22;70834;37.534;-122.308;2023-07-31T08:54:13;16.30;76.90
81383;DHT22;70834;37.534;-122.308;2023-07-31T08:56:36;16.30;76.90
81383;DHT22;70834;37.534;-122.308;2023-07-31T08:58:59;16.30;76.90
81383;DHT22;70834;37.534;-122.308;2023-07-31T09:04:40;16.30;77.00
81383;DHT22;70834;37.534;-122.308;2023-07-31T09:07:03;16.40;77.20
81383;DHT22;70834;37.534;-122.308;2023-07-31T09:09:25;16.30;77.20
81383;DHT22;70834;37.534;-122.308;2023-07-31T09:11:46;16.30;77.20
81383;DHT22;70834;37.534;-122.308;2023-07-31T09:14:09;16.30;77.00
81383;DHT22;70834;37.534;-122.308;2023-07-31T09:16:33;16.30;77.10
81383;DHT22;70834;37.534;-122.308;2023-07-31T09:18:55;16.30;77.30
81383;DHT22;70834;37.534;-122.308;2023-07-31T09:21:17;16.20;77.40
81383;DHT22;70834;37.534;-122.308;2023-07-31T09:23:44;16.20;77.20
81383;DHT22;70834;37.534;-122.308;2023-07-31T09:26:05;16.20;77.20
81383;DHT22;70834;37.534;-122.308;2023-07-31T09:28:31;16.20;77.50
81383;DHT22;70834;37.534;-122.308;2023-07-31T09:30:53;16.20;77.30
81383;DHT22;70834;37.534;-122.308;2023-07-31T09:33:15;16.20;77.50
81383;DHT22;70834;37.534;-122.308;2023-07-31T09:35:36;16.20;78.30
81383;DHT22;70834;37.534;-122.308;2023-07-31T09:38:11;16.20;77.70
81383;DHT22;70834;37.534;-122.308;2023-07-31T09:40:35;16.20;77.70
81383;DHT22;70834;37.534;-122.308;2023-07-31T09:43:01;16.20;77.80
81383;DHT22;70834;37.534;-122.308;2023-07-31T09:45:24;16.10;77.80
81383;DHT22;70834;37.534;-122.308;2023-07-31T09:47:48;16.10;77.80
81383;DHT22;70834;37.534;-122.308;2023-07-31T09:50:10;16.10;77.80
81383;DHT22;70834;37.534;-122.308;2023-07-31T09:52:31;16.10;77.90
81383;DHT22;70834;37.534;-122.308;2023-07-31T09:54:53;16.10;77.60
81383;DHT22;70834;37.534;-122.308;2023-07-31T09:57:17;16.10;77.80
81383;DHT22;70834;37.534;-122.308;2023-07-31T09:59:40;16.10;77.80
81383;DHT22;70834;37.534;-122.308;2023-07-31T10:02:01;16.10;77.80
81383;DHT22;70834;37.534;-122.308;2023-07-31T10:04:25;16.00;77.80
81383;DHT22;70834;37.534;-122.308;2023-07-31T10:06:49;16.00;77.80
81383;DHT22;70834;37.534;-122.308;2023-07-31T10:09:15;16.00;77.70
81383;DHT22;70834;37.534;-122.308;2023-07-31T10:11:47;16.00;77.90
81383;DHT22;70834;37.534;-122.308;2023-07-31T10:14:12;16.00;77.90
81383;DHT22;70834;37.534;-122.308;2023-07-31T10:16:37;15.90;78.00
81383;DHT22;70834;37.534;-122.308;2023-07-31T10:18:59;15.90;78.00
81383;DHT22;70834;37.534;-122.308;2023-07-31T10:21:21;15.90;78.30
81383;DHT22;70834;37.534;-122.308;2023-07-31T10:23:43;15.90;78.40
81383;DHT22;70834;37.534;-122.308;2023-07-31T10:26:05;15.90;78.70
81383;DHT22;70834;37.534;-122.308;2023-07-31T10:28:29;15.90;78.70
81383;DHT22;70834;37.534;-122.308;2023-07-31T10:30:52;15.90;78.90
81383;DHT22;70834;37.534;-122.308;2023-07-31T10:33:15;15.90;78.80
81383;DHT22;70834;37.534;-122.308;2023-07-31T10:35:36;15.90;79.00
81383;DHT22;70834;37.534;-122.308;2023-07-31T10:38:10;15.90;78.80
81383;DHT22;70834;37.534;-122.308;2023-07-31T10:40:34;15.90;78.70
81383;DHT22;70834;37.534;-122.308;2023-07-31T10:42:57;15.90;78.90
81383;DHT22;70834;37.534;-122.308;2023-07-31T10:45:26;15.80;79.00
81383;DHT22;70834;37.534;-122.308;2023-07-31T10:47:58;15.80;79.30
81383;DHT22;70834;37.534;-122.308;2023-07-31T10:50:22;15.80;79.10
81383;DHT22;70834;37.534;-122.308;2023-07-31T10:52:48;15.80;78.80
81383;DHT22;70834;37.534;-122.308;2023-07-31T10:55:29;15.80;78.40
81383;DHT22;70834;37.534;-122.308;2023-07-31T10:57:51;15.70;78.30
81383;DHT22;70834;37.534;-122.308;2023-07-31T11:00:29;15.70;78.40
81383;DHT22;70834;37.534;-122.308;2023-07-31T11:02:58;15.70;78.40
81383;DHT22;70834;37.534;-122.308;2023-07-31T11:05:20;15.70;78.80
81383;DHT22;70834;37.534;-122.308;2023-07-31T11:07:49;15.60;78.80
81383;DHT22;70834;37.534;-122.308;2023-07-31T11:10:11;15.60;78.70
81383;DHT22;70834;37.534;-122.308;2023-07-31T11:12:32;15.70;78.60
81383;DHT22;70834;37.534;-122.308;2023-07-31T11:14:57;15.70;78.60
81383;DHT22;70834;37.534;-122.308;2023-07-31T11:17:18;15.60;79.10
81383;DHT22;70834;37.534;-122.308;2023-07-31T11:19:40;15.60;78.90
81383;DHT22;70834;37.534;-122.308;2023-07-31T11:22:02;15.60;79.40
81383;DHT22;70834;37.534;-122.308;2023-07-31T11:24:24;15.60;79.50
81383;DHT22;70834;37.534;-122.308;2023-07-31T11:26:52;15.60;79.50
81383;DHT22;70834;37.534;-122.308;2023-07-31T11:29:14;15.60;79.40
81383;DHT22;70834;37.534;-122.308;2023-07-31T11:31:42;15.50;79.80
81383;DHT22;70834;37.534;-122.308;2023-07-31T11:34:07;15.50;80.20
81383;DHT22;70834;37.534;-122.308;2023-07-31T11:36:28;15.50;79.30
81383;DHT22;70834;37.534;-122.308;2023-07-31T11:38:50;15.40;79.40
81383;DHT22;70834;37.534;-122.308;2023-07-31T11:41:14;15.40;79.20
81383;DHT22;70834;37.534;-122.308;2023-07-31T11:43:37;15.40;79.10
81383;DHT22;70834;37.534;-122.308;2023-07-31T11:46:00;15.40;79.10
81383;DHT22;70834;37.534;-122.308;2023-07-31T11:48:28;15.40;79.20
81383;DHT22;70834;37.534;-122.308;2023-07-31T11:50:51;15.40;79.20
81383;DHT22;70834;37.534;-122.308;2023-07-31T11:53:13;15.40;79.00
81383;DHT22;70834;37.534;-122.308;2023-07-31T11:55:35;15.30;79.30
81383;DHT22;70834;37.534;-122.308;2023-07-31T11:57:58;15.30;79.50
81383;DHT22;70834;37.534;-122.308;2023-07-31T12:00:20;15.30;79.70
81383;DHT22;70834;37.534;-122.308;2023-07-31T12:02:42;15.30;80.00
81383;DHT22;70834;37.534;-122.308;2023-07-31T12:05:04;15.30;80.00
81383;DHT22;70834;37.534;-122.308;2023-07-31T12:07:26;15.30;80.10
81383;DHT22;70834;37.534;-122.308;2023-07-31T12:09:56;15.20;80.10
81383;DHT22;70834;37.534;-122.308;2023-07-31T12:12:26;15.20;80.20
81383;DHT22;70834;37.534;-122.308;2023-07-31T12:14:48;15.20;80.40
81383;DHT22;70834;37.534;-122.308;2023-07-31T12:17:09;15.20;80.60
81383;DHT22;70834;37.534;-122.308;2023-07-31T12:19:31;15.20;80.70
81383;DHT22;70834;37.534;-122.308;2023-07-31T12:21:53;15.20;80.70
81383;DHT22;70834;37.534;-122.308;2023-07-31T12:24:14;15.20;80.80
81383;DHT22;70834;37.534;-122.308;2023-07-31T12:26:36;15.20;80.80
81383;DHT22;70834;37.534;-122.308;2023-07-31T12:28:57;15.20;80.60
81383;DHT22;70834;37.534;-122.308;2023-07-31T12:31:21;15.20;80.60
81383;DHT22;70834;37.534;-122.308;2023-07-31T12:33:43;15.20;80.40
81383;DHT22;70834;37.534;-122.308;2023-07-31T12:36:15;15.20;80.40
81383;DHT22;70834;37.534;-122.308;2023-07-31T12:38:36;15.10;80.40
81383;DHT22;70834;37.534;-122.308;2023-07-31T12:40:58;15.10;80.50
81383;DHT22;70834;37.534;-122.308;2023-07-31T12:43:19;15.10;80.60
81383;DHT22;70834;37.534;-122.308;2023-07-31T12:45:41;15.10;80.60
81383;DHT22;70834;37.534;-122.308;2023-07-31T12:48:02;15.10;80.60
81383;DHT22;70834;37.534;-122.308;2023-07-31T12:50:24;15.10;80.80
81383;DHT22;70834;37.534;-122.308;2023-07-31T12:52:46;15.10;81.30
81383;DHT22;70834;37.534;-122.308;2023-07-31T12:55:08;15.10;81.70
81383;DHT22;70834;37.534;-122.308;2023-07-31T12:57:30;15.10;81.80
81383;DHT22;70834;37.534;-122.308;2023-07-31T12:59:51;15.10;81.70
81383;DHT22;70834;37.534;-122.308;2023-07-31T13:02:12;15.10;81.70
81383;DHT22;70834;37.534;-122.308;2023-07-31T13:04:34;15.10;81.70
81383;DHT22;70834;37.534;-122.308;2023-07-31T13:06:55;15.10;81.50
81383;DHT22;70834;37.534;-122.308;2023-07-31T13:09:17;15.10;81.50
81383;DHT22;70834;37.534;-122.308;2023-07-31T13:11:38;15.10;81.50
81383;DHT22;70834;37.534;-122.308;2023-07-31T13:14:00;15.10;81.40
81383;DHT22;70834;37.534;-122.308;2023-07-31T13:16:21;15.10;81.30
81383;DHT22;70834;37.534;-122.308;2023-07-31T13:18:43;15.00;81.10
81383;DHT22;70834;37.534;-122.308;2023-07-31T13:21:04;15.00;81.00
81383;DHT22;70834;37.534;-122.308;2023-07-31T13:23:26;15.10;81.20
81383;DHT22;70834;37.534;-122.308;2023-07-31T13:25:47;15.10;81.40
81383;DHT22;70834;37.534;-122.308;2023-07-31T13:28:09;15.10;81.50
81383;DHT22;70834;37.534;-122.308;2023-07-31T13:30:31;15.10;81.70
81383;DHT22;70834;37.534;-122.308;2023-07-31T13:32:52;15.10;82.50
81383;DHT22;70834;37.534;-122.308;2023-07-31T13:35:13;15.10;81.80
81383;DHT22;70834;37.534;-122.308;2023-07-31T13:37:35;15.10;81.80
81383;DHT22;70834;37.534;-122.308;2023-07-31T13:39:56;15.10;81.80
81383;DHT22;70834;37.534;-122.308;2023-07-31T13:42:18;15.10;81.80
81383;DHT22;70834;37.534;-122.308;2023-07-31T13:44:40;15.10;81.70
81383;DHT22;70834;37.534;-122.308;2023-07-31T13:47:02;15.10;81.80
81383;DHT22;70834;37.534;-122.308;2023-07-31T13:49:24;15.10;81.80
81383;DHT22;70834;37.534;-122.308;2023-07-31T13:51:45;15.10;81.80
81383;DHT22;70834;37.534;-122.308;2023-07-31T13:54:07;15.20;81.80
81383;DHT22;70834;37.534;-122.308;2023-07-31T13:56:28;15.10;81.80
81383;DHT22;70834;37.534;-122.308;2023-07-31T13:58:50;15.20;82.00
81383;DHT22;70834;37.534;-122.308;2023-07-31T14:01:11;15.20;82.10
81383;DHT22;70834;37.534;-122.308;2023-07-31T14:03:33;15.30;82.20
81383;DHT22;70834;37.534;-122.308;2023-07-31T14:05:55;15.30;82.40
81383;DHT22;70834;37.534;-122.308;2023-07-31T14:08:16;15.40;82.60
81383;DHT22;70834;37.534;-122.308;2023-07-31T14:10:38;15.50;82.60
81383;DHT22;70834;37.534;-122.308;2023-07-31T14:12:59;15.60;82.50
81383;DHT22;70834;37.534;-122.308;2023-07-31T14:15:21;15.70;82.60
81383;DHT22;70834;37.534;-122.308;2023-07-31T14:17:42;15.80;82.40
81383;DHT22;70834;37.534;-122.308;2023-07-31T14:20:04;15.90;82.30
81383;DHT22;70834;37.534;-122.308;2023-07-31T14:22:32;16.00;81.90
81383;DHT22;70834;37.534;-122.308;2023-07-31T14:24:54;16.20;81.60
81383;DHT22;70834;37.534;-122.308;2023-07-31T14:27:16;16.30;81.30